Time;durP1;ratioP1;P1;durP2;ratioP2;P2;SDS_P1;SDS_P2;PMS_P1;PMS_P2;Temp;Humidity;BMP_temperature;BMP_pressure;BME280_temperature;BME280_humidity;BME280_pressure;Samples;Min_cycle;Max_cycle;Signal;HPM_P1;HPM_P2
2021/08/18 00:00:57;;;;;;;13.55;8.50;;;13.70;95.80;;;;;;2089532;28;20025;-74
2021/08/18 00:01:58;;;;;;;13.98;8.95;;;13.70;95.90;;;;;;2089673;28;20086;-74
2021/08/18 00:03:00;;;;;;;12.80;8.82;;;13.70;96.10;;;;;;2081773;28;20041;-75
2021/08/18 00:04:02;;;;;;;13.70;8.77;;;13.70;96.10;;;;;;2081994;28;20562;-74
2021/08/18 00:05:05;;;;;;;15.65;9.38;;;13.70;96.20;;;;;;2089725;28;20037;-74
2021/08/18 00:06:06;;;;;;;14.88;9.68;;;13.70;96.00;;;;;;2082940;28;20025;-74
2021/08/18 00:07:07;;;;;;;14.07;9.20;;;13.70;95.90;;;;;;2090207;28;20024;-74
2021/08/18 00:08:10;;;;;;;14.27;8.63;;;13.70;96.20;;;;;;2090264;28;20043;-74
2021/08/18 00:09:12;;;;;;;14.43;9.48;;;13.70;96.20;;;;;;2090166;28;20468;-74
2021/08/18 00:10:13;;;;;;;14.73;9.43;;;13.70;96.20;;;;;;2089844;28;20500;-74
2021/08/18 00:11:14;;;;;;;15.43;9.30;;;13.70;96.20;;;;;;2089278;28;20107;-73
2021/08/18 00:12:15;;;;;;;15.10;9.68;;;13.70;96.30;;;;;;2090020;28;20577;-74
2021/08/18 00:13:16;;;;;;;13.00;8.80;;;13.70;96.40;;;;;;2090430;28;20472;-73
2021/08/18 00:14:17;;;;;;;13.10;8.85;;;13.70;96.50;;;;;;2090826;28;20044;-75
2021/08/18 00:15:18;;;;;;;14.35;9.23;;;13.70;96.50;;;;;;2090858;28;20054;-74
2021/08/18 00:16:21;;;;;;;14.02;9.00;;;13.70;96.50;;;;;;2089781;28;20106;-74
2021/08/18 00:17:21;;;;;;;14.98;9.40;;;13.60;96.50;;;;;;2081389;28;20033;-74
2021/08/18 00:18:22;;;;;;;13.70;8.65;;;13.60;96.30;;;;;;2081422;28;20112;-74
2021/08/18 00:19:23;;;;;;;14.43;9.18;;;13.60;96.30;;;;;;2081040;28;20029;-73
2021/08/18 00:20:24;;;;;;;13.25;8.90;;;13.60;96.30;;;;;;2081454;28;20934;-74
2021/08/18 00:21:25;;;;;;;13.68;8.93;;;13.60;96.30;;;;;;2081031;28;20488;-75
2021/08/18 00:22:25;;;;;;;15.52;8.90;;;13.60;96.50;;;;;;2089538;28;20075;-74
2021/08/18 00:23:26;;;;;;;14.65;8.88;;;13.60;96.50;;;;;;2090295;28;20086;-74
2021/08/18 00:24:27;;;;;;;13.00;8.32;;;13.60;96.50;;;;;;2090134;28;20065;-73
2021/08/18 00:25:28;;;;;;;11.63;8.27;;;13.60;96.50;;;;;;2090216;28;20028;-74
2021/08/18 00:26:29;;;;;;;13.95;8.50;;;13.60;96.60;;;;;;2089548;28;20052;-73
2021/08/18 00:27:30;;;;;;;13.63;8.40;;;13.60;96.90;;;;;;2089464;28;20515;-74
2021/08/18 00:28:31;;;;;;;12.60;8.32;;;13.60;96.70;;;;;;2090215;28;20029;-72
2021/08/18 00:29:31;;;;;;;12.52;8.02;;;13.60;96.80;;;;;;2089871;28;20056;-74
2021/08/18 00:30:32;;;;;;;13.35;8.48;;;13.60;96.80;;;;;;2090784;28;20080;-74
2021/08/18 00:31:33;;;;;;;12.73;8.10;;;13.60;97.00;;;;;;2089478;28;20056;-74
2021/08/18 00:32:34;;;;;;;12.68;8.15;;;13.50;97.20;;;;;;2089374;28;20021;-73
2021/08/18 00:33:35;;;;;;;13.32;7.97;;;13.50;97.40;;;;;;2089804;28;20029;-74
2021/08/18 00:34:36;;;;;;;12.10;7.80;;;13.50;97.60;;;;;;2081458;28;20037;-74
2021/08/18 00:35:37;;;;;;;11.32;7.68;;;13.50;97.60;;;;;;2089936;28;20455;-73
2021/08/18 00:36:37;;;;;;;11.45;7.72;;;13.50;97.60;;;;;;2089724;28;20136;-74
2021/08/18 00:37:38;;;;;;;13.23;8.50;;;13.50;97.70;;;;;;2089694;28;20444;-73
2021/08/18 00:38:39;;;;;;;12.50;8.18;;;13.50;97.80;;;;;;2089766;28;20051;-74
2021/08/18 00:39:40;;;;;;;12.82;8.40;;;13.40;97.90;;;;;;2090255;28;20112;-74
2021/08/18 00:40:41;;;;;;;12.85;8.30;;;13.40;98.00;;;;;;2090152;28;20025;-74
2021/08/18 00:41:44;;;;;;;13.30;8.30;;;13.40;98.00;;;;;;2089752;28;20381;-74
2021/08/18 00:42:46;;;;;;;12.68;8.10;;;13.40;97.80;;;;;;2090265;28;20122;-73
2021/08/18 00:43:48;;;;;;;12.00;7.47;;;13.40;97.80;;;;;;2090324;28;20024;-72
2021/08/18 00:44:49;;;;;;;12.23;7.95;;;13.40;97.70;;;;;;2089317;28;20091;-72
2021/08/18 00:45:50;;;;;;;13.13;7.97;;;13.50;97.80;;;;;;2089441;28;20029;-72
2021/08/18 00:46:57;;;;;;;12.93;8.00;;;13.40;97.90;;;;;;2089524;28;20128;-72
2021/08/18 00:47:58;;;;;;;11.88;7.85;;;13.50;97.90;;;;;;2090514;28;20039;-73
2021/08/18 00:48:58;;;;;;;13.35;7.95;;;13.50;98.40;;;;;;2089878;28;20029;-71
2021/08/18 00:49:59;;;;;;;11.55;7.90;;;13.50;98.00;;;;;;2089242;28;20029;-72
2021/08/18 00:51:01;;;;;;;12.35;7.65;;;13.40;98.10;;;;;;2088783;28;20021;-72
2021/08/18 00:52:03;;;;;;;12.05;7.80;;;13.50;97.90;;;;;;2090060;28;20535;-71
2021/08/18 00:53:04;;;;;;;12.50;7.95;;;13.50;97.80;;;;;;2090111;28;20029;-72
2021/08/18 00:54:05;;;;;;;13.63;7.97;;;13.50;97.80;;;;;;2090034;28;20092;-72
2021/08/18 00:55:09;;;;;;;11.32;7.78;;;13.50;97.90;;;;;;2089834;28;20777;-72
2021/08/18 00:56:12;;;;;;;15.43;8.70;;;13.50;97.80;;;;;;2089427;28;20099;-72
2021/08/18 00:57:13;;;;;;;12.52;8.00;;;13.50;97.60;;;;;;2089313;28;20040;-72
2021/08/18 00:58:14;;;;;;;12.00;7.95;;;13.50;97.60;;;;;;2089939;28;20146;-71
2021/08/18 00:59:15;;;;;;;12.57;8.07;;;13.50;97.60;;;;;;2089742;28;20048;-72
2021/08/18 01:00:18;;;;;;;13.05;7.95;;;13.50;97.80;;;;;;2089180;28;20107;-72
2021/08/18 01:01:19;;;;;;;15.15;8.00;;;13.50;97.40;;;;;;2080551;28;20042;-73
2021/08/18 01:02:21;;;;;;;12.63;7.43;;;13.50;97.20;;;;;;2081081;28;20083;-72
2021/08/18 01:03:21;;;;;;;12.88;7.90;;;13.50;97.20;;;;;;2088951;28;20097;-72
2021/08/18 01:04:22;;;;;;;10.63;7.30;;;13.50;97.10;;;;;;2088432;28;20488;-71
2021/08/18 01:05:28;;;;;;;13.02;7.95;;;13.50;97.20;;;;;;2081070;28;20084;-71
2021/08/18 01:06:29;;;;;;;13.43;8.02;;;13.40;97.40;;;;;;2082038;28;20083;-71
2021/08/18 01:07:33;;;;;;;12.63;8.10;;;13.50;97.60;;;;;;2089375;28;20029;-72
2021/08/18 01:08:35;;;;;;;11.73;7.63;;;13.40;97.30;;;;;;2089363;28;20127;-73
2021/08/18 01:09:35;;;;;;;11.18;7.47;;;13.50;97.20;;;;;;2089889;28;20116;-73
2021/08/18 01:10:36;;;;;;;14.13;8.20;;;13.40;97.20;;;;;;2089982;28;20400;-72
2021/08/18 01:11:42;;;;;;;12.10;7.55;;;13.40;97.30;;;;;;2089167;28;20067;-72
2021/08/18 01:12:43;;;;;;;12.98;7.82;;;13.40;97.40;;;;;;2080922;28;20029;-72
2021/08/18 01:13:44;;;;;;;12.55;8.15;;;13.40;97.60;;;;;;2080867;28;20523;-72
2021/08/18 01:14:46;;;;;;;12.02;7.80;;;13.40;97.60;;;;;;2080932;28;20033;-72
2021/08/18 01:15:47;;;;;;;11.60;7.45;;;13.40;97.70;;;;;;2089286;28;20562;-72
2021/08/18 01:16:49;;;;;;;14.15;8.25;;;13.40;97.90;;;;;;2089779;28;20041;-72
2021/08/18 01:17:52;;;;;;;11.75;7.30;;;13.40;97.70;;;;;;2089876;28;20473;-72
2021/08/18 01:18:53;;;;;;;11.88;7.93;;;13.40;97.90;;;;;;2088839;28;20123;-72
2021/08/18 01:19:53;;;;;;;12.55;8.02;;;13.40;98.00;;;;;;2089016;28;20025;-72
2021/08/18 01:20:54;;;;;;;12.43;8.10;;;13.40;97.90;;;;;;2089005;28;20555;-72
2021/08/18 01:21:55;;;;;;;13.77;8.27;;;13.40;98.00;;;;;;2088633;28;20179;-72
2021/08/18 01:23:00;;;;;;;13.32;7.85;;;13.40;97.70;;;;;;2080831;28;20069;-72
2021/08/18 01:24:03;;;;;;;13.43;8.38;;;13.40;97.70;;;;;;2089318;28;20021;-73
2021/08/18 01:25:07;;;;;;;13.07;8.38;;;13.40;98.00;;;;;;2089610;28;20147;-72
2021/08/18 01:26:08;;;;;;;11.65;7.45;;;13.40;97.80;;;;;;2089783;28;20021;-72
2021/08/18 01:27:08;;;;;;;14.60;8.15;;;13.30;97.90;;;;;;2089837;28;20450;-73
2021/08/18 01:28:10;;;;;;;12.98;8.07;;;13.30;98.10;;;;;;2089727;28;20465;-72
2021/08/18 01:29:11;;;;;;;13.65;8.27;;;13.30;98.30;;;;;;2089246;28;20021;-71
2021/08/18 01:30:13;;;;;;;12.63;8.10;;;13.30;98.50;;;;;;2089079;28;20068;-74
2021/08/18 01:31:14;;;;;;;12.48;7.88;;;13.30;98.40;;;;;;2088699;28;20025;-74
2021/08/18 01:32:14;;;;;;;12.98;8.50;;;13.30;98.20;;;;;;2089310;28;20048;-74
2021/08/18 01:33:16;;;;;;;12.55;8.00;;;13.30;98.30;;;;;;2080639;28;20040;-73
2021/08/18 01:34:17;;;;;;;13.10;8.85;;;13.30;98.50;;;;;;2073026;28;20057;-74
2021/08/18 01:35:38;;;;;;;15.20;8.80;;;13.30;98.70;;;;;;2080887;28;20025;-74
2021/08/18 01:36:38;;;;;;;;;;;13.30;98.50;;;;;;2089127;28;20087;-72
2021/08/18 01:37:39;;;;;;;13.32;8.00;;;13.30;98.60;;;;;;2089149;28;19905;-72
2021/08/18 01:38:40;;;;;;;14.63;8.27;;;13.20;98.60;;;;;;2089246;28;20013;-73
2021/08/18 01:39:43;;;;;;;11.95;7.68;;;13.20;98.40;;;;;;2088981;28;20036;-72
2021/08/18 01:40:47;;;;;;;12.85;8.18;;;13.20;98.50;;;;;;2088992;28;20025;-71
2021/08/18 01:41:47;;;;;;;12.13;7.72;;;13.20;98.50;;;;;;2089261;28;20062;-71
2021/08/18 01:42:49;;;;;;;12.68;8.10;;;13.20;98.70;;;;;;2089881;28;20025;-72
2021/08/18 01:43:50;;;;;;;11.80;7.57;;;13.20;98.80;;;;;;2089673;28;20017;-72
2021/08/18 01:44:52;;;;;;;12.00;7.72;;;13.20;99.10;;;;;;2089659;28;20035;-72
2021/08/18 01:45:54;;;;;;;14.07;8.00;;;13.20;99.10;;;;;;2089677;28;20396;-72
2021/08/18 01:46:54;;;;;;;12.48;7.97;;;13.20;98.80;;;;;;2089767;28;20017;-71
2021/08/18 01:47:56;;;;;;;11.55;7.60;;;13.20;98.80;;;;;;2089722;28;20377;-72
2021/08/18 01:48:58;;;;;;;12.80;8.43;;;13.20;98.90;;;;;;2080575;28;20138;-73
2021/08/18 01:49:59;;;;;;;12.63;8.07;;;13.20;99.20;;;;;;2080914;28;20033;-72
2021/08/18 01:51:03;;;;;;;14.05;8.27;;;13.20;99.30;;;;;;2088489;28;20050;-71
2021/08/18 01:52:04;;;;;;;12.30;7.68;;;13.10;99.20;;;;;;2089066;28;20032;-71
2021/08/18 01:53:05;;;;;;;11.90;7.57;;;13.10;99.30;;;;;;2089042;28;20048;-72
2021/08/18 01:54:05;;;;;;;12.88;8.20;;;13.10;99.90;;;;;;2089705;28;20381;-71
2021/08/18 01:55:06;;;;;;;12.23;7.65;;;13.20;99.70;;;;;;2089398;28;20083;-72
2021/08/18 01:56:09;;;;;;;12.07;7.57;;;13.10;99.70;;;;;;2089104;28;20057;-72
2021/08/18 01:57:11;;;;;;;13.73;7.90;;;13.10;99.70;;;;;;2089139;28;20025;-72
2021/08/18 01:58:11;;;;;;;11.57;7.57;;;13.10;99.90;;;;;;2089124;28;20029;-72
2021/08/18 01:59:12;;;;;;;12.45;7.65;;;13.10;99.90;;;;;;2088825;28;20060;-72
2021/08/18 02:00:15;;;;;;;12.45;7.72;;;13.10;99.90;;;;;;2089561;28;20028;-73
2021/08/18 02:01:16;;;;;;;13.02;7.93;;;13.10;99.90;;;;;;2088265;28;20033;-72
2021/08/18 02:02:17;;;;;;;12.15;7.70;;;13.10;99.90;;;;;;2088910;28;20032;-72
2021/08/18 02:03:17;;;;;;;12.35;7.70;;;13.10;99.90;;;;;;2088904;28;20040;-72
2021/08/18 02:04:18;;;;;;;11.77;7.57;;;13.10;99.90;;;;;;2088746;28;20036;-72
2021/08/18 02:05:22;;;;;;;11.90;7.80;;;13.10;99.90;;;;;;2088643;28;20041;-71
2021/08/18 02:06:23;;;;;;;10.60;7.43;;;13.10;99.90;;;;;;2089370;28;20112;-71
2021/08/18 02:07:24;;;;;;;11.55;7.60;;;13.10;99.90;;;;;;2089399;28;20032;-73
2021/08/18 02:08:24;;;;;;;12.48;7.88;;;13.10;99.90;;;;;;2089360;28;20043;-72
2021/08/18 02:09:25;;;;;;;13.23;8.20;;;13.00;99.90;;;;;;2089031;28;20492;-72
2021/08/18 02:10:27;;;;;;;12.18;7.97;;;13.10;99.90;;;;;;2089390;28;20082;-72
2021/08/18 02:11:28;;;;;;;13.23;7.50;;;13.00;99.90;;;;;;2088946;28;20021;-72
2021/08/18 02:12:29;;;;;;;13.68;8.00;;;13.00;99.90;;;;;;2089057;28;20605;-72
2021/08/18 02:13:31;;;;;;;12.07;7.55;;;13.00;99.90;;;;;;2088949;28;20167;-73
2021/08/18 02:14:32;;;;;;;12.13;7.68;;;13.00;99.90;;;;;;2088873;28;20087;-73
2021/08/18 02:15:33;;;;;;;14.27;7.95;;;13.00;99.90;;;;;;2088990;28;20047;-72
2021/08/18 02:16:34;;;;;;;11.60;7.63;;;13.00;99.90;;;;;;2089264;28;20029;-71
2021/08/18 02:17:35;;;;;;;11.73;8.13;;;13.00;99.90;;;;;;2089318;28;20029;-72
2021/08/18 02:18:35;;;;;;;11.93;7.68;;;13.00;99.90;;;;;;2089023;28;20043;-73
2021/08/18 02:19:36;;;;;;;13.18;7.60;;;13.00;99.90;;;;;;2089235;28;20029;-73
2021/08/18 02:20:38;;;;;;;11.98;7.38;;;13.00;99.90;;;;;;2089590;28;20033;-73
2021/08/18 02:21:39;;;;;;;11.88;7.65;;;13.00;99.90;;;;;;2088879;28;20041;-72
2021/08/18 02:22:40;;;;;;;11.70;7.45;;;13.00;99.90;;;;;;2089284;28;20041;-73
2021/08/18 02:23:41;;;;;;;11.57;7.85;;;13.00;99.90;;;;;;2089430;28;20037;-74
2021/08/18 02:24:42;;;;;;;12.32;7.88;;;13.00;99.90;;;;;;2089314;28;20029;-72
2021/08/18 02:25:43;;;;;;;12.55;8.38;;;13.00;99.90;;;;;;2089187;28;20036;-73
2021/08/18 02:26:44;;;;;;;11.98;7.68;;;13.00;99.90;;;;;;2089241;28;20029;-73
2021/08/18 02:27:45;;;;;;;11.48;7.53;;;13.00;99.90;;;;;;2089233;28;20478;-73
2021/08/18 02:28:45;;;;;;;11.93;7.50;;;12.90;99.90;;;;;;2088997;28;20032;-72
2021/08/18 02:29:46;;;;;;;11.30;7.63;;;12.90;99.90;;;;;;2089525;28;20112;-73
2021/08/18 02:30:47;;;;;;;11.48;7.50;;;12.90;99.90;;;;;;2089413;28;20021;-75
2021/08/18 02:31:48;;;;;;;12.63;7.95;;;12.90;99.90;;;;;;2089334;28;20031;-74
2021/08/18 02:32:49;;;;;;;12.82;7.75;;;12.90;99.90;;;;;;2089710;28;20447;-75
2021/08/18 02:33:49;;;;;;;13.30;7.90;;;12.90;99.90;;;;;;2089446;28;20025;-75
2021/08/18 02:34:50;;;;;;;14.15;8.20;;;12.90;99.90;;;;;;2095438;28;20036;-74
2021/08/18 02:35:52;;;;;;;13.43;8.10;;;12.90;99.90;;;;;;2097593;28;20044;-74
2021/08/18 02:36:52;;;;;;;14.55;8.38;;;12.90;99.90;;;;;;2097674;28;20041;-74
2021/08/18 02:37:55;;;;;;;13.27;8.27;;;12.90;99.90;;;;;;2097879;28;20092;-74
2021/08/18 02:38:55;;;;;;;12.63;7.90;;;12.90;99.90;;;;;;2098076;28;20053;-74
2021/08/18 02:39:56;;;;;;;12.48;8.23;;;12.90;99.90;;;;;;2098003;28;20107;-74
2021/08/18 02:40:57;;;;;;;14.00;7.93;;;12.90;99.90;;;;;;2095333;28;20044;-74
2021/08/18 02:41:58;;;;;;;10.45;7.13;;;12.90;99.90;;;;;;2097380;28;20024;-74
2021/08/18 02:43:00;;;;;;;12.43;8.10;;;12.90;99.90;;;;;;2096708;28;20056;-74
2021/08/18 02:44:01;;;;;;;11.93;7.88;;;12.90;99.90;;;;;;2094306;28;20085;-74
2021/08/18 02:45:05;;;;;;;13.75;7.57;;;12.90;99.90;;;;;;2090123;28;20384;-75
2021/08/18 02:46:05;;;;;;;13.07;8.18;;;12.90;99.90;;;;;;2090070;28;20031;-75
2021/08/18 02:47:06;;;;;;;12.07;7.53;;;12.80;99.90;;;;;;2089857;28;20021;-76
2021/08/18 02:48:07;;;;;;;12.68;7.97;;;12.90;99.90;;;;;;2089436;28;20021;-75
2021/08/18 02:49:08;;;;;;;13.73;8.68;;;12.80;99.90;;;;;;2089194;28;20151;-73
2021/08/18 02:50:10;;;;;;;13.18;8.23;;;12.90;99.90;;;;;;2089321;28;20037;-72
2021/08/18 02:51:11;;;;;;;14.35;8.63;;;12.90;99.90;;;;;;2088819;28;20495;-74
2021/08/18 02:52:12;;;;;;;13.45;8.00;;;12.90;99.90;;;;;;2089372;28;20031;-74
2021/08/18 02:53:12;;;;;;;12.80;8.05;;;12.90;99.90;;;;;;2088662;28;20033;-74
2021/08/18 02:54:13;;;;;;;12.05;7.80;;;12.90;99.90;;;;;;2088948;28;20128;-73
2021/08/18 02:55:14;;;;;;;12.73;7.75;;;12.90;99.90;;;;;;2090637;28;20028;-73
2021/08/18 02:56:15;;;;;;;12.10;8.15;;;12.90;99.90;;;;;;2090015;28;20109;-73
2021/08/18 02:57:16;;;;;;;12.80;8.32;;;12.90;99.90;;;;;;2090317;28;20084;-73
2021/08/18 02:58:16;;;;;;;13.07;8.20;;;13.00;99.90;;;;;;2089898;28;20515;-74
2021/08/18 02:59:17;;;;;;;15.07;8.30;;;13.00;99.90;;;;;;2089469;28;20083;-73
2021/08/18 03:00:18;;;;;;;13.05;8.10;;;13.10;99.90;;;;;;2089925;28;20071;-73
2021/08/18 03:01:19;;;;;;;10.77;7.40;;;13.10;99.90;;;;;;2088701;28;20055;-73
2021/08/18 03:02:20;;;;;;;13.65;7.63;;;13.20;99.90;;;;;;2089251;28;20032;-73
2021/08/18 03:03:20;;;;;;;12.18;7.68;;;13.20;99.90;;;;;;2080072;28;20026;-73
2021/08/18 03:04:21;;;;;;;12.10;7.45;;;13.20;99.90;;;;;;2080212;28;20579;-73
2021/08/18 03:05:22;;;;;;;12.77;7.70;;;13.30;99.90;;;;;;2089410;28;20048;-72
2021/08/18 03:06:22;;;;;;;12.35;8.15;;;13.30;99.90;;;;;;2080487;28;20025;-73
2021/08/18 03:07:23;;;;;;;12.68;8.43;;;13.40;99.90;;;;;;2080492;28;20437;-73
2021/08/18 03:08:24;;;;;;;13.65;8.45;;;13.40;99.90;;;;;;2089151;28;20033;-73
2021/08/18 03:09:25;;;;;;;12.02;7.60;;;13.40;99.80;;;;;;2088085;28;20028;-73
2021/08/18 03:10:26;;;;;;;11.35;7.45;;;13.40;99.80;;;;;;2088357;28;20405;-73
2021/08/18 03:11:27;;;;;;;12.73;7.95;;;13.50;99.80;;;;;;2087635;28;20042;-73
2021/08/18 03:12:27;;;;;;;14.13;8.02;;;13.50;99.50;;;;;;2088289;28;20152;-73
2021/08/18 03:13:29;;;;;;;11.75;7.82;;;13.50;99.30;;;;;;2088801;28;20060;-73
2021/08/18 03:14:30;;;;;;;11.88;7.53;;;13.50;99.60;;;;;;2088890;28;20021;-73
2021/08/18 03:15:31;;;;;;;12.48;7.65;;;13.50;99.70;;;;;;2088838;28;20025;-73
2021/08/18 03:16:32;;;;;;;12.38;8.05;;;13.60;99.50;;;;;;2088754;28;20459;-73
2021/08/18 03:17:33;;;;;;;11.35;7.68;;;13.60;99.60;;;;;;2088839;28;20113;-73
2021/08/18 03:18:34;;;;;;;11.90;7.68;;;13.60;99.70;;;;;;2087970;28;20071;-74
2021/08/18 03:19:34;;;;;;;11.07;7.53;;;13.60;99.70;;;;;;2087888;28;20029;-73
2021/08/18 03:20:35;;;;;;;11.77;7.72;;;13.60;99.20;;;;;;2088711;28;20032;-73
2021/08/18 03:21:36;;;;;;;11.65;7.47;;;13.60;99.00;;;;;;2088405;28;20017;-73
2021/08/18 03:22:37;;;;;;;13.13;7.93;;;13.60;99.10;;;;;;2088756;28;20116;-73
2021/08/18 03:23:37;;;;;;;11.98;7.75;;;13.70;99.10;;;;;;2088147;28;20037;-73
2021/08/18 03:24:38;;;;;;;11.95;7.63;;;13.70;99.00;;;;;;2088181;28;20025;-73
2021/08/18 03:25:39;;;;;;;11.93;7.43;;;13.70;99.00;;;;;;2088130;28;20037;-73
2021/08/18 03:26:40;;;;;;;12.30;8.00;;;13.70;98.80;;;;;;2088465;28;20025;-73
2021/08/18 03:27:41;;;;;;;11.52;7.65;;;13.70;98.90;;;;;;2088613;28;20072;-73
2021/08/18 03:28:42;;;;;;;14.73;8.38;;;13.70;98.70;;;;;;2088659;28;20033;-73
2021/08/18 03:29:42;;;;;;;11.63;7.68;;;13.70;98.70;;;;;;2088847;28;20111;-73
2021/08/18 03:30:43;;;;;;;11.60;7.90;;;13.70;98.90;;;;;;2088922;28;20120;-73
2021/08/18 03:31:44;;;;;;;12.18;7.55;;;13.70;98.90;;;;;;2088221;28;20025;-73
2021/08/18 03:32:45;;;;;;;11.73;7.32;;;13.80;99.10;;;;;;2088909;28;20021;-73
2021/08/18 03:33:46;;;;;;;12.52;7.85;;;13.80;99.20;;;;;;2088933;28;20439;-73
2021/08/18 03:34:46;;;;;;;12.20;7.75;;;13.80;99.10;;;;;;2088913;28;20476;-73
2021/08/18 03:35:47;;;;;;;13.52;7.97;;;13.80;99.10;;;;;;2088213;28;20035;-73
2021/08/18 03:36:48;;;;;;;11.70;7.65;;;13.80;99.30;;;;;;2088488;28;20033;-74
2021/08/18 03:37:49;;;;;;;12.98;8.00;;;13.80;99.00;;;;;;2088799;28;20415;-73
2021/08/18 03:38:49;;;;;;;12.68;7.57;;;13.80;98.80;;;;;;2089025;28;20512;-73
2021/08/18 03:39:50;;;;;;;11.52;7.45;;;13.80;98.90;;;;;;2089029;28;20025;-73
2021/08/18 03:40:53;;;;;;;13.38;7.82;;;13.80;98.80;;;;;;2089519;28;20041;-74
2021/08/18 03:41:53;;;;;;;12.10;7.70;;;13.90;98.90;;;;;;2088279;28;20029;-73
2021/08/18 03:42:54;;;;;;;12.23;8.18;;;13.90;99.00;;;;;;2088747;28;20031;-73
2021/08/18 03:43:55;;;;;;;11.80;7.45;;;13.90;98.90;;;;;;2088676;28;20147;-72
2021/08/18 03:44:55;;;;;;;11.43;7.82;;;13.90;98.70;;;;;;2087933;28;20043;-73
2021/08/18 03:45:56;;;;;;;16.38;8.48;;;13.90;98.70;;;;;;2088110;28;20032;-73
2021/08/18 03:46:57;;;;;;;12.98;8.18;;;13.90;98.50;;;;;;2088125;28;20017;-73
2021/08/18 03:47:58;;;;;;;12.73;8.10;;;13.90;98.60;;;;;;2088691;28;20028;-73
2021/08/18 03:49:00;;;;;;;12.98;8.18;;;13.90;98.80;;;;;;2088210;28;20514;-73
2021/08/18 03:50:00;;;;;;;15.85;8.27;;;13.90;98.90;;;;;;2087868;28;20029;-73
2021/08/18 03:51:01;;;;;;;11.57;7.40;;;13.90;98.90;;;;;;2087368;28;20025;-73
2021/08/18 03:52:02;;;;;;;12.98;8.23;;;13.90;98.80;;;;;;2079759;28;20079;-73
2021/08/18 03:53:03;;;;;;;11.88;7.80;;;13.90;98.60;;;;;;2088056;28;20017;-73
2021/08/18 03:54:04;;;;;;;11.43;7.82;;;13.90;98.80;;;;;;2088685;28;20024;-73
2021/08/18 03:55:05;;;;;;;11.48;7.40;;;13.90;98.60;;;;;;2088553;28;20403;-73
2021/08/18 03:56:06;;;;;;;13.15;8.32;;;14.00;98.70;;;;;;2087894;28;20043;-73
2021/08/18 03:57:06;;;;;;;13.35;8.05;;;13.90;98.80;;;;;;2087883;28;20546;-73
2021/08/18 03:58:07;;;;;;;13.60;7.78;;;13.90;98.80;;;;;;2079581;28;20100;-72
2021/08/18 03:59:08;;;;;;;13.60;7.80;;;13.90;98.70;;;;;;2087779;28;20013;-74
2021/08/18 04:00:09;;;;;;;11.57;7.60;;;13.90;98.90;;;;;;2087931;28;20056;-73
2021/08/18 04:01:10;;;;;;;12.15;7.20;;;13.90;98.50;;;;;;2088251;28;20033;-73
2021/08/18 04:02:11;;;;;;;12.13;7.57;;;13.90;98.60;;;;;;2088695;28;20029;-74
2021/08/18 04:03:12;;;;;;;14.18;8.07;;;13.90;98.70;;;;;;2088669;28;20037;-73
2021/08/18 04:04:12;;;;;;;12.07;7.32;;;14.00;98.70;;;;;;2088664;28;20025;-73
2021/08/18 04:05:14;;;;;;;14.50;7.82;;;14.00;98.90;;;;;;2088416;28;20037;-73
2021/08/18 04:06:14;;;;;;;12.82;7.38;;;14.00;99.20;;;;;;2079593;28;20025;-73
2021/08/18 04:07:15;;;;;;;11.73;8.00;;;14.00;98.80;;;;;;2079884;28;20021;-72
2021/08/18 04:08:16;;;;;;;13.75;7.60;;;14.00;98.70;;;;;;2087877;28;20017;-73
2021/08/18 04:09:16;;;;;;;12.43;7.30;;;14.00;98.60;;;;;;2087809;28;20516;-73
2021/08/18 04:10:17;;;;;;;11.13;7.15;;;14.00;98.60;;;;;;2088344;28;20033;-72
2021/08/18 04:11:18;;;;;;;12.88;7.60;;;14.10;98.70;;;;;;2087467;28;20349;-73
2021/08/18 04:12:19;;;;;;;12.85;7.25;;;14.00;98.70;;;;;;2087917;28;20039;-73
2021/08/18 04:13:19;;;;;;;12.27;7.47;;;14.10;98.50;;;;;;2088491;28;20140;-73
2021/08/18 04:14:20;;;;;;;11.65;7.32;;;14.10;98.70;;;;;;2088588;28;20032;-73
2021/08/18 04:15:48;;;;;;;12.00;7.13;;;14.10;98.90;;;;;;2088435;28;20037;-73
2021/08/18 04:16:49;;;;;;;11.50;7.20;;;14.10;98.70;;;;;;2085849;28;20148;-72
2021/08/18 04:17:50;;;;;;;11.77;7.20;;;14.10;98.30;;;;;;2087925;28;20503;-73
2021/08/18 04:18:51;;;;;;;11.52;7.25;;;14.10;98.20;;;;;;2088285;28;20483;-73
2021/08/18 04:19:51;;;;;;;10.20;6.75;;;14.10;98.10;;;;;;2088382;28;20112;-73
2021/08/18 04:20:52;;;;;;;11.27;6.95;;;14.20;98.10;;;;;;2088417;28;20029;-73
2021/08/18 04:21:53;;;;;;;10.63;6.95;;;14.10;98.00;;;;;;2088070;28;20032;-73
2021/08/18 04:22:54;;;;;;;11.10;6.68;;;14.10;98.60;;;;;;2088273;28;20090;-73
2021/08/18 04:23:55;;;;;;;12.95;7.10;;;14.10;98.70;;;;;;2088516;28;20025;-73
2021/08/18 04:24:55;;;;;;;11.43;6.90;;;14.10;98.70;;;;;;2088378;28;20040;-73
2021/08/18 04:25:56;;;;;;;11.60;6.70;;;14.20;98.60;;;;;;2087865;28;20484;-73
2021/08/18 04:26:57;;;;;;;12.20;7.22;;;14.20;98.30;;;;;;2087777;28;20052;-73
2021/08/18 04:27:58;;;;;;;11.30;7.30;;;14.20;98.40;;;;;;2079527;28;20535;-74
2021/08/18 04:28:58;;;;;;;10.95;6.70;;;14.20;98.20;;;;;;2087625;28;20065;-73
2021/08/18 04:29:59;;;;;;;10.60;6.63;;;14.20;98.20;;;;;;2088444;28;20095;-73
2021/08/18 04:31:00;;;;;;;11.27;6.82;;;14.20;98.30;;;;;;2087268;28;20029;-74
2021/08/18 04:32:01;;;;;;;10.32;6.63;;;14.20;98.40;;;;;;2088024;28;20415;-74
2021/08/18 04:33:01;;;;;;;9.70;6.40;;;14.20;98.50;;;;;;2088013;28;20373;-73
2021/08/18 04:34:02;;;;;;;10.60;6.68;;;14.20;98.60;;;;;;2087848;28;20088;-74
2021/08/18 04:35:04;;;;;;;10.90;6.75;;;14.30;98.30;;;;;;2087925;28;20035;-73
2021/08/18 04:36:05;;;;;;;10.35;6.40;;;14.30;98.50;;;;;;2088201;28;20128;-73
2021/08/18 04:37:06;;;;;;;10.93;6.60;;;14.30;98.40;;;;;;2088465;28;20028;-73
2021/08/18 04:38:06;;;;;;;11.75;6.68;;;14.30;98.50;;;;;;2088222;28;20496;-73
2021/08/18 04:39:07;;;;;;;11.13;6.90;;;14.30;98.30;;;;;;2088935;28;20032;-73
2021/08/18 04:40:11;;;;;;;11.07;7.07;;;14.30;98.20;;;;;;2080967;28;20060;-73
2021/08/18 04:41:12;;;;;;;10.63;6.63;;;14.30;98.10;;;;;;2088910;28;20126;-74
2021/08/18 04:42:13;;;;;;;10.75;6.75;;;14.40;98.20;;;;;;2089947;28;20114;-73
2021/08/18 04:43:14;;;;;;;9.60;6.28;;;14.40;98.30;;;;;;2090013;28;20029;-73
2021/08/18 04:44:14;;;;;;;9.02;6.28;;;14.40;98.60;;;;;;2089827;28;20675;-73
2021/08/18 04:45:16;;;;;;;10.10;6.47;;;14.40;98.20;;;;;;2089114;28;20040;-73
2021/08/18 04:46:17;;;;;;;9.73;5.90;;;14.40;97.40;;;;;;2089494;28;20023;-73
2021/08/18 04:47:17;;;;;;;9.65;5.97;;;14.40;97.70;;;;;;2090005;28;20412;-72
2021/08/18 04:48:19;;;;;;;11.07;6.88;;;14.40;97.70;;;;;;2089964;28;20064;-73
2021/08/18 04:49:19;;;;;;;12.55;6.85;;;14.40;97.50;;;;;;2089554;28;20564;-74
2021/08/18 04:50:20;;;;;;;11.38;6.40;;;14.50;97.30;;;;;;2089116;28;20099;-74
2021/08/18 04:51:21;;;;;;;11.73;6.35;;;14.50;97.50;;;;;;2088718;28;20104;-73
2021/08/18 04:52:22;;;;;;;8.98;5.80;;;14.50;97.60;;;;;;2089335;28;20089;-73
2021/08/18 04:53:22;;;;;;;10.30;5.85;;;14.50;97.50;;;;;;2089901;28;20442;-73
2021/08/18 04:54:23;;;;;;;9.15;6.22;;;14.50;97.30;;;;;;2089857;28;20032;-74
2021/08/18 04:55:23;;;;;;;9.90;6.20;;;14.50;97.30;;;;;;2089374;28;20103;-72
2021/08/18 04:56:24;;;;;;;10.10;5.90;;;14.50;97.30;;;;;;2089396;28;20122;-73
2021/08/18 04:57:25;;;;;;;9.65;6.15;;;14.50;97.00;;;;;;2080734;28;20485;-74
2021/08/18 04:58:25;;;;;;;9.23;6.00;;;14.50;96.90;;;;;;2089248;28;20044;-73
2021/08/18 04:59:26;;;;;;;9.55;5.70;;;14.60;97.10;;;;;;2089522;28;20029;-74
2021/08/18 05:00:27;;;;;;;10.50;6.38;;;14.60;97.20;;;;;;2089257;28;20798;-73
2021/08/18 05:01:27;;;;;;;9.85;5.90;;;14.60;96.90;;;;;;2088726;28;20144;-74
2021/08/18 05:02:28;;;;;;;8.07;5.47;;;14.60;96.90;;;;;;2089235;28;20037;-73
2021/08/18 05:03:28;;;;;;;9.43;5.43;;;14.60;96.40;;;;;;2089831;28;20042;-73
2021/08/18 05:04:29;;;;;;;8.00;5.40;;;14.60;96.50;;;;;;2089147;28;20036;-73
2021/08/18 05:05:29;;;;;;;8.50;5.38;;;14.60;96.60;;;;;;2089125;28;20036;-73
2021/08/18 05:06:30;;;;;;;7.95;5.70;;;14.60;97.00;;;;;;2089297;28;20033;-73
2021/08/18 05:07:31;;;;;;;9.00;5.88;;;14.60;97.10;;;;;;2089142;28;20070;-73
2021/08/18 05:08:31;;;;;;;9.23;5.75;;;14.60;97.00;;;;;;2089732;28;20060;-73
2021/08/18 05:09:32;;;;;;;8.38;5.45;;;14.60;97.00;;;;;;2089289;28;20033;-73
2021/08/18 05:10:36;;;;;;;8.52;5.47;;;14.70;97.00;;;;;;2089544;28;20100;-73
2021/08/18 05:11:37;;;;;;;9.90;5.90;;;14.70;97.20;;;;;;2089184;28;20100;-73
2021/08/18 05:12:38;;;;;;;8.50;5.43;;;14.70;96.70;;;;;;2089658;28;20036;-73
2021/08/18 05:13:38;;;;;;;9.35;5.38;;;14.70;96.80;;;;;;2088952;28;20036;-73
2021/08/18 05:14:39;;;;;;;8.90;5.43;;;14.70;96.80;;;;;;2089062;28;20036;-73
2021/08/18 05:15:40;;;;;;;8.27;5.28;;;14.70;96.90;;;;;;2089753;28;20041;-73